^^
Saratoga-Weather Station Historical Data
Daily Summary for May 24, 2022 Units:  Both    English   Metric
Daily Weekly Monthly Yearly Custom
  High: Low: Average:
Temperature: 63.7 °F /  17.6 °C 52.5 °F /  11.4 °C 58.3 °F /  14.6 °C
Dew Point: 55.9 °F /  13.3 °C 47.7 °F /  8.7 °C 51.6 °F /  10.9 °C
Humidity: 93% 58% 79%
Wind Speed: 20mph /  32.2km/h - 2.9mph /  4.7km/h
Wind Gust: 20mph /  32.2km/h - -
Wind- - West
Pressure: 29.9 in /  1012.2 hPa 29.6 in /  1002.4 hPa -
Precipitation: 0.24 in /  6.1 mm    
Historical Graphs
 
 
Tabular Data for May 24, 2022
Time Temperature Dew Point Pressure Wind Wind Speed Wind Gust Humidity Rainfall Rate (Hourly) solar
00:01 57.9 °F /  14.4 °C 55.6 °F /  13.1 °C 29.6in /  1003.0hPa Calm     92% 0in /  0.0mm 0 W/m2
00:06 57.9 °F /  14.4 °C 55.6 °F /  13.1 °C 29.6in /  1003.0hPa Calm     92% 0in /  0.0mm 0 W/m2
00:11 57.9 °F /  14.4 °C 55.6 °F /  13.1 °C 29.6in /  1003.0hPa NW 0.9mph /  1.4km/h 3mph /  4.8km/h 92% 0in /  0.0mm 0 W/m2
00:16 57.9 °F /  14.4 °C 55.6 °F /  13.1 °C 29.6in /  1003.0hPa NW 0.9mph /  1.4km/h 1mph /  1.6km/h 92% 0in /  0.0mm 0 W/m2
00:21 57.9 °F /  14.4 °C 55.6 °F /  13.1 °C 29.6in /  1003.4hPa Calm   3mph /  4.8km/h 92% 0in /  0.0mm 0 W/m2
00:26 57.9 °F /  14.4 °C 55.6 °F /  13.1 °C 29.6in /  1003.4hPa Calm     92% 0in /  0.0mm 0 W/m2
00:31 58.1 °F /  14.5 °C 55.8 °F /  13.2 °C 29.6in /  1003.4hPa West 2mph /  3.2km/h 3mph /  4.8km/h 92% 0in /  0.0mm 0 W/m2
00:36 58.1 °F /  14.5 °C 55.8 °F /  13.2 °C 29.6in /  1003.4hPa Calm     92% 0in /  0.0mm 0 W/m2
00:41 58.1 °F /  14.5 °C 55.8 °F /  13.2 °C 29.6in /  1003.4hPa NE 0.9mph /  1.4km/h 2mph /  3.2km/h 92% 0in /  0.0mm 0 W/m2
00:46 58.1 °F /  14.5 °C 55.8 °F /  13.2 °C 29.6in /  1003.4hPa Calm   2mph /  3.2km/h 92% 0in /  0.0mm 0 W/m2
00:51 58.1 °F /  14.5 °C 55.8 °F /  13.2 °C 29.6in /  1003.4hPa NE 0.9mph /  1.4km/h 2mph /  3.2km/h 92% 0in /  0.0mm 0 W/m2
00:56 58.3 °F /  14.6 °C 55.9 °F /  13.3 °C 29.6in /  1003.0hPa NE 0.9mph /  1.4km/h 1mph /  1.6km/h 92% 0in /  0.0mm 0 W/m2
01:01 58.3 °F /  14.6 °C 55.9 °F /  13.3 °C 29.6in /  1003.4hPa East 2mph /  3.2km/h 2mph /  3.2km/h 92% 0in /  0.0mm 0 W/m2
01:06 58.3 °F /  14.6 °C 55.9 °F /  13.3 °C 29.6in /  1003.4hPa SSE 0.9mph /  1.4km/h 3mph /  4.8km/h 92% 0in /  0.0mm 0 W/m2
01:11 58.3 °F /  14.6 °C 55.9 °F /  13.3 °C 29.6in /  1003.4hPa Calm   1mph /  1.6km/h 92% 0in /  0.0mm 0 W/m2
01:16 58.3 °F /  14.6 °C 55.9 °F /  13.3 °C 29.6in /  1003.4hPa Calm   1mph /  1.6km/h 92% 0in /  0.0mm 0 W/m2
01:21 58.3 °F /  14.6 °C 55.9 °F /  13.3 °C 29.6in /  1003.4hPa ENE 0.9mph /  1.4km/h 2mph /  3.2km/h 92% 0in /  0.0mm 0 W/m2
01:26 58.1 °F /  14.5 °C 55.8 °F /  13.2 °C 29.6in /  1003.0hPa Calm   2mph /  3.2km/h 92% 0in /  0.0mm 0 W/m2
01:31 57.9 °F /  14.4 °C 55.6 °F /  13.1 °C 29.6in /  1003.0hPa Calm   1mph /  1.6km/h 92% 0in /  0.0mm 0 W/m2
01:36 57.9 °F /  14.4 °C 55.6 °F /  13.1 °C 29.6in /  1003.0hPa Calm   2mph /  3.2km/h 92% 0in /  0.0mm 0 W/m2
01:41 58.1 °F /  14.5 °C 55.8 °F /  13.2 °C 29.6in /  1003.0hPa WNW 0.9mph /  1.4km/h 1mph /  1.6km/h 92% 0in /  0.0mm 0 W/m2
01:46 58.1 °F /  14.5 °C 55.8 °F /  13.2 °C 29.6in /  1003.0hPa Calm     92% 0in /  0.0mm 0 W/m2
01:51 58.1 °F /  14.5 °C 55.8 °F /  13.2 °C 29.6in /  1003.0hPa NW 0.9mph /  1.4km/h 3mph /  4.8km/h 92% 0in /  0.0mm 0 W/m2
01:56 58.1 °F /  14.5 °C 55.8 °F /  13.2 °C 29.6in /  1003.0hPa WNW 0.9mph /  1.4km/h 2mph /  3.2km/h 92% 0in /  0.0mm 0 W/m2
02:01 58.1 °F /  14.5 °C 55.8 °F /  13.2 °C 29.6in /  1003.0hPa WNW 0.9mph /  1.4km/h 2mph /  3.2km/h 92% 0in /  0.0mm 0 W/m2
02:06 58.1 °F /  14.5 °C 55.8 °F /  13.2 °C 29.6in /  1003.0hPa Calm   2mph /  3.2km/h 92% 0in /  0.0mm 0 W/m2
02:11 58.1 °F /  14.5 °C 55.8 °F /  13.2 °C 29.6in /  1003.0hPa Calm   1mph /  1.6km/h 92% 0in /  0.0mm 0 W/m2
02:16 57.9 °F /  14.4 °C 55.6 °F /  13.1 °C 29.6in /  1003.0hPa Calm   1mph /  1.6km/h 92% 0in /  0.0mm 0 W/m2
02:21 57.9 °F /  14.4 °C 55.6 °F /  13.1 °C 29.6in /  1003.0hPa Calm   2mph /  3.2km/h 92% 0in /  0.0mm 0 W/m2
02:26 57.9 °F /  14.4 °C 55.6 °F /  13.1 °C 29.6in /  1003.0hPa West 2.9mph /  4.7km/h 4mph /  6.4km/h 92% 0in /  0.0mm 0 W/m2
02:31 57.9 °F /  14.4 °C 55.2 °F /  12.9 °C 29.6in /  1003.0hPa Calm   3mph /  4.8km/h 91% 0in /  0.0mm 0 W/m2
02:36 57.9 °F /  14.4 °C 55.2 °F /  12.9 °C 29.6in /  1003.0hPa Calm   2mph /  3.2km/h 91% 0in /  0.0mm 0 W/m2
02:41 57.9 °F /  14.4 °C 55.6 °F /  13.1 °C 29.6in /  1003.0hPa West 0.9mph /  1.4km/h 4mph /  6.4km/h 92% 0in /  0.0mm 0 W/m2
02:46 57.9 °F /  14.4 °C 55.6 °F /  13.1 °C 29.6in /  1003.0hPa NW 0.9mph /  1.4km/h 2mph /  3.2km/h 92% 0in /  0.0mm 0 W/m2
02:51 57.9 °F /  14.4 °C 55.6 °F /  13.1 °C 29.6in /  1003.0hPa WNW 0.9mph /  1.4km/h 3mph /  4.8km/h 92% 0in /  0.0mm 0 W/m2
02:56 57.7 °F /  14.3 °C 55.4 °F /  13 °C 29.6in /  1003.0hPa NW 0.9mph /  1.4km/h 3mph /  4.8km/h 92% 0in /  0.0mm 0 W/m2
03:01 57.9 °F /  14.4 °C 55.6 °F /  13.1 °C 29.6in /  1003.0hPa NW 2mph /  3.2km/h 2mph /  3.2km/h 92% 0in /  0.0mm 0 W/m2
03:06 57.7 °F /  14.3 °C 55.4 °F /  13 °C 29.6in /  1003.0hPa Calm   3mph /  4.8km/h 92% 0in /  0.0mm 0 W/m2
03:11 57.7 °F /  14.3 °C 55.4 °F /  13 °C 29.6in /  1003.0hPa Calm   1mph /  1.6km/h 92% 0in /  0.0mm 0 W/m2
03:16 57.7 °F /  14.3 °C 55.4 °F /  13 °C 29.6in /  1003.0hPa Calm   2mph /  3.2km/h 92% 0in /  0.0mm 0 W/m2
03:21 57.7 °F /  14.3 °C 55.4 °F /  13 °C 29.6in /  1002.7hPa Calm   3mph /  4.8km/h 92% 0in /  0.0mm 0 W/m2
03:26 57.6 °F /  14.2 °C 55.2 °F /  12.9 °C 29.6in /  1002.7hPa Calm   1mph /  1.6km/h 92% 0in /  0.0mm 0 W/m2
03:31 57.6 °F /  14.2 °C 55.2 °F /  12.9 °C 29.6in /  1002.7hPa NNE 0.9mph /  1.4km/h 3mph /  4.8km/h 92% 0in /  0.0mm 0 W/m2
03:36 57.6 °F /  14.2 °C 55.2 °F /  12.9 °C 29.6in /  1002.7hPa NNW 0.9mph /  1.4km/h 4mph /  6.4km/h 92% 0.01in /  0.2mm 0 W/m2
03:41 57.6 °F /  14.2 °C 55.2 °F /  12.9 °C 29.6in /  1002.7hPa WNW 4.9mph /  7.9km/h 5mph /  8km/h 92% 0.01in /  0.2mm 0 W/m2
03:46 57.4 °F /  14.1 °C 55 °F /  12.8 °C 29.6in /  1002.7hPa WNW 0.9mph /  1.4km/h 4mph /  6.4km/h 92% 0.01in /  0.2mm 0 W/m2
03:51 57.4 °F /  14.1 °C 55 °F /  12.8 °C 29.6in /  1002.4hPa NW 2.9mph /  4.7km/h 4mph /  6.4km/h 92% 0.01in /  0.2mm 0 W/m2
03:56 57.4 °F /  14.1 °C 55 °F /  12.8 °C 29.6in /  1002.7hPa NNW 2mph /  3.2km/h 2mph /  3.2km/h 92% 0.01in /  0.2mm 0 W/m2
04:01 57.2 °F /  14 °C 54.9 °F /  12.7 °C 29.6in /  1002.7hPa NNW 2mph /  3.2km/h 3mph /  4.8km/h 92% 0.01in /  0.2mm 0 W/m2
04:06 57 °F /  13.9 °C 54.7 °F /  12.6 °C 29.6in /  1002.4hPa NW 2mph /  3.2km/h 3mph /  4.8km/h 92% 0.02in /  0.5mm 0 W/m2
04:11 57 °F /  13.9 °C 54.7 °F /  12.6 °C 29.6in /  1002.4hPa NNW 2mph /  3.2km/h 3mph /  4.8km/h 92% 0.02in /  0.5mm 0 W/m2
04:16 57 °F /  13.9 °C 54.7 °F /  12.6 °C 29.6in /  1002.4hPa NNW 4mph /  6.4km/h 4mph /  6.4km/h 92% 0.02in /  0.5mm 0 W/m2
04:21 57 °F /  13.9 °C 54.7 °F /  12.6 °C 29.6in /  1002.4hPa Calm   2mph /  3.2km/h 92% 0.02in /  0.5mm 0 W/m2
04:26 57 °F /  13.9 °C 54.7 °F /  12.6 °C 29.6in /  1002.4hPa WNW 2mph /  3.2km/h 4mph /  6.4km/h 92% 0.02in /  0.5mm 0 W/m2
04:31 57 °F /  13.9 °C 54.7 °F /  12.6 °C 29.6in /  1002.4hPa NNW 2mph /  3.2km/h 2mph /  3.2km/h 92% 0.02in /  0.5mm 0 W/m2
04:36 56.8 °F /  13.8 °C 54.5 °F /  12.5 °C 29.6in /  1002.7hPa NW 2mph /  3.2km/h 4mph /  6.4km/h 92% 0.02in /  0.5mm 0 W/m2
04:41 56.8 °F /  13.8 °C 54.5 °F /  12.5 °C 29.6in /  1002.7hPa NNW 4.9mph /  7.9km/h 8mph /  12.9km/h 92% 0.02in /  0.5mm 0 W/m2
04:46 56.8 °F /  13.8 °C 54.5 °F /  12.5 °C 29.6in /  1002.7hPa North 2mph /  3.2km/h 5mph /  8km/h 92% 0.02in /  0.5mm 0 W/m2
04:51 56.8 °F /  13.8 °C 54.5 °F /  12.5 °C 29.6in /  1002.7hPa North 2mph /  3.2km/h 8mph /  12.9km/h 92% 0.05in /  1.3mm 0 W/m2
04:56 56.7 °F /  13.7 °C 54.3 °F /  12.4 °C 29.6in /  1002.7hPa WNW 4mph /  6.4km/h 9mph /  14.5km/h 92% 0.08in /  2.0mm 0 W/m2
05:01 56.3 °F /  13.5 °C 54 °F /  12.2 °C 29.6in /  1002.7hPa WNW 2mph /  3.2km/h 8mph /  12.9km/h 92% 0.09in /  2.3mm 0 W/m2
05:06 56.1 °F /  13.4 °C 53.8 °F /  12.1 °C 29.6in /  1002.7hPa WNW 2.9mph /  4.7km/h 9mph /  14.5km/h 92% 0.09in /  2.3mm 0 W/m2
05:11 55.9 °F /  13.3 °C 53.6 °F /  12 °C 29.6in /  1003.0hPa WSW 2mph /  3.2km/h 10mph /  16.1km/h 92% 0.09in /  2.3mm 0 W/m2
05:16 55.9 °F /  13.3 °C 53.6 °F /  12 °C 29.6in /  1003.0hPa NNW 2mph /  3.2km/h 3mph /  4.8km/h 92% 0.1in /  2.5mm 0 W/m2
05:22 55.8 °F /  13.2 °C 53.4 °F /  11.9 °C 29.6in /  1003.0hPa West 2.9mph /  4.7km/h 10mph /  16.1km/h 92% 0.1in /  2.5mm 0 W/m2
05:27 55.6 °F /  13.1 °C 53.2 °F /  11.8 °C 29.6in /  1003.0hPa NW 8.9mph /  14.3km/h 9mph /  14.5km/h 92% 0.11in /  2.8mm 0 W/m2
05:32 55.6 °F /  13.1 °C 53.2 °F /  11.8 °C 29.6in /  1003.0hPa NW 0.9mph /  1.4km/h 4mph /  6.4km/h 92% 0.12in /  3.0mm 0 W/m2
05:37 55.6 °F /  13.1 °C 53.2 °F /  11.8 °C 29.6in /  1003.4hPa West 9mph /  14.5km/h 9mph /  14.5km/h 92% 0.13in /  3.3mm 0 W/m2
05:42 55.6 °F /  13.1 °C 53.2 °F /  11.8 °C 29.6in /  1003.4hPa NNW 4mph /  6.4km/h 8mph /  12.9km/h 92% 0.13in /  3.3mm 0 W/m2
05:47 55.4 °F /  13 °C 53.1 °F /  11.7 °C 29.6in /  1003.4hPa NW 4.9mph /  7.9km/h 8mph /  12.9km/h 92% 0.13in /  3.3mm 0 W/m2
05:52 55.2 °F /  12.9 °C 52.9 °F /  11.6 °C 29.6in /  1003.4hPa NNW 6mph /  9.7km/h 8mph /  12.9km/h 92% 0.1in /  2.5mm 0 W/m2
05:57 55.2 °F /  12.9 °C 52.9 °F /  11.6 °C 29.6in /  1003.4hPa WNW 2mph /  3.2km/h 4mph /  6.4km/h 92% 0.07in /  1.8mm 0 W/m2
06:02 55.2 °F /  12.9 °C 52.9 °F /  11.6 °C 29.6in /  1003.7hPa WSW 4.9mph /  7.9km/h 8mph /  12.9km/h 92% 0.06in /  1.5mm 5 W/m2
06:07 55.2 °F /  12.9 °C 52.9 °F /  11.6 °C 29.6in /  1003.7hPa WNW 2.9mph /  4.7km/h 6mph /  9.7km/h 92% 0.06in /  1.5mm 5 W/m2
06:12 55 °F /  12.8 °C 52.7 °F /  11.5 °C 29.6in /  1003.7hPa Calm   8mph /  12.9km/h 92% 0.05in /  1.3mm 0 W/m2
06:17 55 °F /  12.8 °C 52.7 °F /  11.5 °C 29.6in /  1003.7hPa NW 2.9mph /  4.7km/h 4mph /  6.4km/h 92% 0.04in /  1.0mm 5 W/m2
06:22 55 °F /  12.8 °C 52.7 °F /  11.5 °C 29.7in /  1004.1hPa West 12.1mph /  19.5km/h 14mph /  22.5km/h 92% 0.04in /  1.0mm 11 W/m2
06:27 55 °F /  12.8 °C 52.7 °F /  11.5 °C 29.7in /  1004.1hPa WNW 0.9mph /  1.4km/h 7mph /  11.3km/h 92% 0.03in /  0.8mm 9 W/m2
06:32 55 °F /  12.8 °C 52.7 °F /  11.5 °C 29.7in /  1004.1hPa WNW 2mph /  3.2km/h 14mph /  22.5km/h 92% 0.03in /  0.8mm 0 W/m2
06:37 54.9 °F /  12.7 °C 52.5 °F /  11.4 °C 29.7in /  1004.1hPa WNW 2mph /  3.2km/h 6mph /  9.7km/h 92% 0.03in /  0.8mm 9 W/m2
06:42 54.7 °F /  12.6 °C 52.3 °F /  11.3 °C 29.7in /  1004.1hPa WSW 2.9mph /  4.7km/h 4mph /  6.4km/h 92% 0.04in /  1.0mm 18 W/m2
06:47 54.7 °F /  12.6 °C 52.3 °F /  11.3 °C 29.6in /  1003.7hPa WNW 0.9mph /  1.4km/h 4mph /  6.4km/h 92% 0.03in /  0.8mm 14 W/m2
06:52 54.7 °F /  12.6 °C 52.3 °F /  11.3 °C 29.7in /  1004.1hPa NW 2.9mph /  4.7km/h 6mph /  9.7km/h 92% 0.03in /  0.8mm 14 W/m2
06:57 54.3 °F /  12.4 °C 52 °F /  11.1 °C 29.7in /  1004.1hPa West 2mph /  3.2km/h 7mph /  11.3km/h 92% 0.03in /  0.8mm 11 W/m2
07:02 54.3 °F /  12.4 °C 52 °F /  11.1 °C 29.7in /  1004.1hPa WNW 2mph /  3.2km/h 7mph /  11.3km/h 92% 0.03in /  0.8mm 14 W/m2
07:07 54.1 °F /  12.3 °C 51.8 °F /  11 °C 29.7in /  1004.4hPa WSW 4mph /  6.4km/h 8mph /  12.9km/h 92% 0.03in /  0.8mm 40 W/m2
07:12 54.3 °F /  12.4 °C 52 °F /  11.1 °C 29.7in /  1004.7hPa WNW 6.9mph /  11.1km/h 8mph /  12.9km/h 92% 0.03in /  0.8mm 116 W/m2
07:17 54.5 °F /  12.5 °C 52.5 °F /  11.4 °C 29.7in /  1004.7hPa NW 2.9mph /  4.7km/h 5mph /  8km/h 93% 0.03in /  0.8mm 35 W/m2
07:22 54.5 °F /  12.5 °C 52.2 °F /  11.2 °C 29.7in /  1005.1hPa NW 4.9mph /  7.9km/h 8mph /  12.9km/h 92% 0.02in /  0.5mm 30 W/m2
07:27 54.5 °F /  12.5 °C 52.2 °F /  11.2 °C 29.7in /  1005.1hPa WNW 0.9mph /  1.4km/h 3mph /  4.8km/h 92% 0.02in /  0.5mm 32 W/m2
07:32 54.3 °F /  12.4 °C 52 °F /  11.1 °C 29.7in /  1005.1hPa WNW 2mph /  3.2km/h 11mph /  17.7km/h 92% 0.02in /  0.5mm 12 W/m2
07:37 54.3 °F /  12.4 °C 52 °F /  11.1 °C 29.7in /  1005.4hPa WNW 12.1mph /  19.5km/h 12mph /  19.3km/h 92% 0.02in /  0.5mm 26 W/m2
07:42 53.8 °F /  12.1 °C 51.3 °F /  10.7 °C 29.7in /  1005.4hPa West 4mph /  6.4km/h 10mph /  16.1km/h 91% 0.02in /  0.5mm 21 W/m2
07:47 53.2 °F /  11.8 °C 50.7 °F /  10.4 °C 29.7in /  1005.4hPa WNW 4.9mph /  7.9km/h 8mph /  12.9km/h 91% 0.04in /  1.0mm 47 W/m2
07:52 52.9 °F /  11.6 °C 50.4 °F /  10.2 °C 29.7in /  1005.4hPa West 6mph /  9.7km/h 9mph /  14.5km/h 91% 0.05in /  1.3mm 51 W/m2
07:57 52.5 °F /  11.4 °C 50 °F /  10 °C 29.7in /  1005.8hPa WSW 11mph /  17.7km/h 11mph /  17.7km/h 91% 0.06in /  1.5mm 47 W/m2
08:02 52.5 °F /  11.4 °C 50.2 °F /  10.1 °C 29.7in /  1005.8hPa WNW 8.1mph /  13km/h 8mph /  12.9km/h 92% 0.06in /  1.5mm 42 W/m2
08:07 52.5 °F /  11.4 °C 50.2 °F /  10.1 °C 29.7in /  1005.8hPa SW 4mph /  6.4km/h 8mph /  12.9km/h 92% 0.06in /  1.5mm 42 W/m2
08:12 52.5 °F /  11.4 °C 50.2 °F /  10.1 °C 29.7in /  1005.8hPa West 8.1mph /  13km/h 8mph /  12.9km/h 92% 0.06in /  1.5mm 39 W/m2
08:17 52.7 °F /  11.5 °C 50.4 °F /  10.2 °C 29.7in /  1005.8hPa WNW 8.1mph /  13km/h 11mph /  17.7km/h 92% 0.06in /  1.5mm 51 W/m2
08:22 53.2 °F /  11.8 °C 51.3 °F /  10.7 °C 29.7in /  1005.8hPa WSW 8.1mph /  13km/h 10mph /  16.1km/h 93% 0.06in /  1.5mm 49 W/m2
08:27 53.8 °F /  12.1 °C 51.8 °F /  11 °C 29.7in /  1005.8hPa WNW 6.9mph /  11.1km/h 11mph /  17.7km/h 93% 0.06in /  1.5mm 49 W/m2
08:32 54.1 °F /  12.3 °C 51.8 °F /  11 °C 29.7in /  1006.1hPa NW 4mph /  6.4km/h 11mph /  17.7km/h 92% 0.06in /  1.5mm 49 W/m2
08:37 54.3 °F /  12.4 °C 51.8 °F /  11 °C 29.7in /  1006.1hPa WNW 4.9mph /  7.9km/h 10mph /  16.1km/h 91% 0.05in /  1.3mm 56 W/m2
08:42 54.7 °F /  12.6 °C 51.8 °F /  11 °C 29.7in /  1006.4hPa West 4mph /  6.4km/h 11mph /  17.7km/h 90% 0.03in /  0.8mm 116 W/m2
08:47 54.9 °F /  12.7 °C 52.3 °F /  11.3 °C 29.7in /  1006.4hPa West 6.9mph /  11.1km/h 9mph /  14.5km/h 91% 0.02in /  0.5mm 155 W/m2
08:52 55 °F /  12.8 °C 51.8 °F /  11 °C 29.7in /  1006.4hPa West 6mph /  9.7km/h 11mph /  17.7km/h 89% 0.01in /  0.2mm 199 W/m2
08:57 55 °F /  12.8 °C 51.8 °F /  11 °C 29.7in /  1006.4hPa West 2mph /  3.2km/h 7mph /  11.3km/h 89% 0in /  0.0mm 76 W/m2
09:02 54.9 °F /  12.7 °C 51.4 °F /  10.8 °C 29.7in /  1006.4hPa WNW 4.9mph /  7.9km/h 11mph /  17.7km/h 88% 0in /  0.0mm 144 W/m2
09:07 54.7 °F /  12.6 °C 51.3 °F /  10.7 °C 29.7in /  1006.4hPa NW 4mph /  6.4km/h 7mph /  11.3km/h 88% 0in /  0.0mm 83 W/m2
09:12 54.7 °F /  12.6 °C 51.4 °F /  10.8 °C 29.7in /  1006.4hPa WNW 6mph /  9.7km/h 6mph /  9.7km/h 89% 0in /  0.0mm 69 W/m2
09:17 55 °F /  12.8 °C 51.8 °F /  11 °C 29.7in /  1006.8hPa WNW 2.9mph /  4.7km/h 7mph /  11.3km/h 89% 0in /  0.0mm 125 W/m2
09:22 55.6 °F /  13.1 °C 52.2 °F /  11.2 °C 29.7in /  1006.8hPa WSW 4mph /  6.4km/h 10mph /  16.1km/h 88% 0in /  0.0mm 236 W/m2
09:27 55.9 °F /  13.3 °C 52.2 °F /  11.2 °C 29.7in /  1006.8hPa West 2mph /  3.2km/h 7mph /  11.3km/h 87% 0in /  0.0mm 239 W/m2
09:32 56.5 °F /  13.6 °C 52.7 °F /  11.5 °C 29.7in /  1006.8hPa WNW 2.9mph /  4.7km/h 10mph /  16.1km/h 87% 0in /  0.0mm 221 W/m2
09:37 56.7 °F /  13.7 °C 52.5 °F /  11.4 °C 29.7in /  1006.8hPa West 6mph /  9.7km/h 6mph /  9.7km/h 86% 0in /  0.0mm 272 W/m2
09:42 56.8 °F /  13.8 °C 52.7 °F /  11.5 °C 29.7in /  1006.8hPa WNW 2.9mph /  4.7km/h 7mph /  11.3km/h 86% 0in /  0.0mm 243 W/m2
09:47 56.8 °F /  13.8 °C 52.3 °F /  11.3 °C 29.7in /  1007.1hPa WNW 15mph /  24.1km/h 15mph /  24.1km/h 85% 0in /  0.0mm 237 W/m2
09:52 57.2 °F /  14 °C 52.7 °F /  11.5 °C 29.7in /  1006.8hPa North 4.9mph /  7.9km/h 9mph /  14.5km/h 85% 0in /  0.0mm 258 W/m2
09:57 56.8 °F /  13.8 °C 51.4 °F /  10.8 °C 29.7in /  1006.8hPa North 2.9mph /  4.7km/h 10mph /  16.1km/h 82% 0in /  0.0mm 163 W/m2
10:02 56.8 °F /  13.8 °C 52 °F /  11.1 °C 29.7in /  1007.1hPa WNW 0.9mph /  1.4km/h 7mph /  11.3km/h 84% 0in /  0.0mm 190 W/m2
10:07 57.2 °F /  14 °C 52.2 °F /  11.2 °C 29.7in /  1007.1hPa WNW 0.9mph /  1.4km/h 10mph /  16.1km/h 83% 0in /  0.0mm 696 W/m2
10:12 57.7 °F /  14.3 °C 52 °F /  11.1 °C 29.7in /  1007.1hPa WSW 2.9mph /  4.7km/h 13mph /  20.9km/h 81% 0in /  0.0mm 469 W/m2
10:17 57.7 °F /  14.3 °C 51.6 °F /  10.9 °C 29.8in /  1007.5hPa WNW 4.9mph /  7.9km/h 11mph /  17.7km/h 80% 0in /  0.0mm 206 W/m2
10:22 57.4 °F /  14.1 °C 51.6 °F /  10.9 °C 29.8in /  1007.5hPa WSW 8.1mph /  13km/h 8mph /  12.9km/h 81% 0in /  0.0mm 199 W/m2
10:27 57.4 °F /  14.1 °C 51.3 °F /  10.7 °C 29.8in /  1007.5hPa WNW 8.1mph /  13km/h 16mph /  25.7km/h 80% 0in /  0.0mm 610 W/m2
10:32 57.6 °F /  14.2 °C 51.4 °F /  10.8 °C 29.8in /  1007.5hPa NW 20mph /  32.2km/h 20mph /  32.2km/h 80% 0in /  0.0mm 258 W/m2
10:37 57.2 °F /  14 °C 51.1 °F /  10.6 °C 29.8in /  1007.5hPa NW 2.9mph /  4.7km/h 6mph /  9.7km/h 80% 0in /  0.0mm 281 W/m2
10:42 57 °F /  13.9 °C 50.9 °F /  10.5 °C 29.8in /  1007.5hPa WSW 20mph /  32.2km/h 20mph /  32.2km/h 80% 0in /  0.0mm 190 W/m2
10:47 56.8 °F /  13.8 °C 50.7 °F /  10.4 °C 29.8in /  1007.5hPa WNW 2.9mph /  4.7km/h 13mph /  20.9km/h 80% 0in /  0.0mm 234 W/m2
10:52 56.8 °F /  13.8 °C 50.7 °F /  10.4 °C 29.8in /  1007.8hPa WNW 8.1mph /  13km/h 9mph /  14.5km/h 80% 0in /  0.0mm 355 W/m2
10:57 57.4 °F /  14.1 °C 50.5 °F /  10.3 °C 29.8in /  1007.8hPa WNW 2.9mph /  4.7km/h 13mph /  20.9km/h 78% 0in /  0.0mm 258 W/m2
11:02 57.6 °F /  14.2 °C 51.1 °F /  10.6 °C 29.8in /  1007.5hPa WNW 2.9mph /  4.7km/h 12mph /  19.3km/h 79% 0in /  0.0mm 294 W/m2
11:07 58.1 °F /  14.5 °C 52 °F /  11.1 °C 29.8in /  1007.8hPa NNW 8.1mph /  13km/h 8mph /  12.9km/h 80% 0in /  0.0mm 881 W/m2
11:12 58.5 °F /  14.7 °C 52 °F /  11.1 °C 29.8in /  1007.8hPa WSW 4mph /  6.4km/h 11mph /  17.7km/h 79% 0in /  0.0mm 1034 W/m2
11:17 58.5 °F /  14.7 °C 51.6 °F /  10.9 °C 29.8in /  1007.8hPa WNW 2.9mph /  4.7km/h 7mph /  11.3km/h 78% 0in /  0.0mm 260 W/m2
11:22 58.3 °F /  14.6 °C 51.4 °F /  10.8 °C 29.8in /  1007.8hPa NW 4.9mph /  7.9km/h 9mph /  14.5km/h 78% 0in /  0.0mm 338 W/m2
11:27 58.5 °F /  14.7 °C 52 °F /  11.1 °C 29.8in /  1008.1hPa WNW 4mph /  6.4km/h 8mph /  12.9km/h 79% 0in /  0.0mm 278 W/m2
11:32 58.1 °F /  14.5 °C 50.5 °F /  10.3 °C 29.8in /  1008.1hPa WSW 4.9mph /  7.9km/h 11mph /  17.7km/h 76% 0in /  0.0mm 169 W/m2
11:37 57.6 °F /  14.2 °C 50 °F /  10 °C 29.8in /  1008.1hPa NW 8.9mph /  14.3km/h 10mph /  16.1km/h 76% 0in /  0.0mm 113 W/m2
11:42 57.7 °F /  14.3 °C 50.5 °F /  10.3 °C 29.8in /  1007.8hPa West 6.9mph /  11.1km/h 11mph /  17.7km/h 77% 0in /  0.0mm 881 W/m2
11:47 58.5 °F /  14.7 °C 50.2 °F /  10.1 °C 29.8in /  1007.8hPa East 2.9mph /  4.7km/h 11mph /  17.7km/h 74% 0in /  0.0mm 868 W/m2
11:52 59.2 °F /  15.1 °C 50.9 °F /  10.5 °C 29.8in /  1007.8hPa West 11mph /  17.7km/h 11mph /  17.7km/h 74% 0in /  0.0mm 867 W/m2
11:57 59.4 °F /  15.2 °C 50 °F /  10 °C 29.8in /  1007.8hPa NNW 4.9mph /  7.9km/h 6mph /  9.7km/h 71% 0in /  0.0mm 352 W/m2
12:02 59.4 °F /  15.2 °C 50.4 °F /  10.2 °C 29.8in /  1008.1hPa NW 2.9mph /  4.7km/h 7mph /  11.3km/h 72% 0in /  0.0mm 146 W/m2
12:07 59.2 °F /  15.1 °C 50.2 °F /  10.1 °C 29.8in /  1008.1hPa WSW 6.9mph /  11.1km/h 12mph /  19.3km/h 72% 0in /  0.0mm 74 W/m2
12:12 58.6 °F /  14.8 °C 50 °F /  10 °C 29.8in /  1008.5hPa WNW 2mph /  3.2km/h 7mph /  11.3km/h 73% 0in /  0.0mm 95 W/m2
12:17 57.7 °F /  14.3 °C 49.5 °F /  9.7 °C 29.8in /  1008.5hPa WNW 0.9mph /  1.4km/h 10mph /  16.1km/h 74% 0in /  0.0mm 255 W/m2
12:22 57.7 °F /  14.3 °C 49.8 °F /  9.9 °C 29.8in /  1008.5hPa WSW 4mph /  6.4km/h 8mph /  12.9km/h 75% 0in /  0.0mm 255 W/m2
12:27 57.9 °F /  14.4 °C 49.6 °F /  9.8 °C 29.8in /  1008.5hPa WNW 2mph /  3.2km/h 15mph /  24.1km/h 74% 0in /  0.0mm 227 W/m2
12:32 57.9 °F /  14.4 °C 50 °F /  10 °C 29.8in /  1008.5hPa West 0.9mph /  1.4km/h 7mph /  11.3km/h 75% 0in /  0.0mm 406 W/m2
12:37 58.3 °F /  14.6 °C 50.4 °F /  10.2 °C 29.8in /  1008.5hPa WNW 4.9mph /  7.9km/h 15mph /  24.1km/h 75% 0in /  0.0mm 761 W/m2
12:42 58.8 °F /  14.9 °C 49.5 °F /  9.7 °C 29.8in /  1008.5hPa WNW 4mph /  6.4km/h 11mph /  17.7km/h 71% 0in /  0.0mm 652 W/m2
12:47 59.5 °F /  15.3 °C 48.9 °F /  9.4 °C 29.8in /  1008.1hPa NW 2.9mph /  4.7km/h 12mph /  19.3km/h 68% 0in /  0.0mm 784 W/m2
12:52 60.1 °F /  15.6 °C 49.5 °F /  9.7 °C 29.8in /  1008.5hPa WNW 10.1mph /  16.3km/h 10mph /  16.1km/h 68% 0in /  0.0mm 847 W/m2
12:57 60.1 °F /  15.6 °C 49.5 °F /  9.7 °C 29.8in /  1008.5hPa WSW 6.9mph /  11.1km/h 11mph /  17.7km/h 68% 0in /  0.0mm 267 W/m2
13:02 59.9 °F /  15.5 °C 49.3 °F /  9.6 °C 29.8in /  1008.5hPa West 4mph /  6.4km/h 7mph /  11.3km/h 68% 0in /  0.0mm 255 W/m2
13:07 59.7 °F /  15.4 °C 49.5 °F /  9.7 °C 29.8in /  1008.5hPa WNW 4mph /  6.4km/h 11mph /  17.7km/h 69% 0in /  0.0mm 167 W/m2
13:12 59.5 °F /  15.3 °C 50.2 °F /  10.1 °C 29.8in /  1008.5hPa WSW 2mph /  3.2km/h 4mph /  6.4km/h 71% 0in /  0.0mm 404 W/m2
13:17 60.1 °F /  15.6 °C 50.7 °F /  10.4 °C 29.8in /  1008.5hPa NW 4mph /  6.4km/h 6mph /  9.7km/h 71% 0in /  0.0mm 861 W/m2
13:22 60.3 °F /  15.7 °C 50 °F /  10 °C 29.8in /  1008.5hPa WNW 2.9mph /  4.7km/h 6mph /  9.7km/h 69% 0in /  0.0mm 357 W/m2
13:27 60.1 °F /  15.6 °C 50.7 °F /  10.4 °C 29.8in /  1008.5hPa West 2.9mph /  4.7km/h 8mph /  12.9km/h 71% 0in /  0.0mm 320 W/m2
13:32 60.1 °F /  15.6 °C 50.2 °F /  10.1 °C 29.8in /  1008.5hPa West 0.9mph /  1.4km/h 3mph /  4.8km/h 70% 0in /  0.0mm 239 W/m2
13:37 60.1 °F /  15.6 °C 49.8 °F /  9.9 °C 29.8in /  1008.5hPa WNW 4mph /  6.4km/h 6mph /  9.7km/h 69% 0in /  0.0mm 406 W/m2
13:42 60.3 °F /  15.7 °C 50.9 °F /  10.5 °C 29.8in /  1008.5hPa NW 4mph /  6.4km/h 10mph /  16.1km/h 71% 0in /  0.0mm 339 W/m2
13:47 60.6 °F /  15.9 °C 50 °F /  10 °C 29.8in /  1008.5hPa South 11mph /  17.7km/h 11mph /  17.7km/h 68% 0in /  0.0mm 338 W/m2
13:52 60.4 °F /  15.8 °C 48.6 °F /  9.2 °C 29.8in /  1008.5hPa SW 4.9mph /  7.9km/h 9mph /  14.5km/h 65% 0in /  0.0mm 350 W/m2
13:57 60.6 °F /  15.9 °C 49.6 °F /  9.8 °C 29.8in /  1008.5hPa WSW 2mph /  3.2km/h 6mph /  9.7km/h 67% 0in /  0.0mm 622 W/m2
14:02 61.3 °F /  16.3 °C 49.8 °F /  9.9 °C 29.8in /  1008.5hPa NW 2.9mph /  4.7km/h 9mph /  14.5km/h 66% 0in /  0.0mm 1109 W/m2
14:07 61.7 °F /  16.5 °C 49.5 °F /  9.7 °C 29.8in /  1008.5hPa West 4mph /  6.4km/h 11mph /  17.7km/h 64% 0in /  0.0mm 399 W/m2
14:12 61.7 °F /  16.5 °C 49.8 °F /  9.9 °C 29.8in /  1008.5hPa WNW 8.1mph /  13km/h 8mph /  12.9km/h 65% 0in /  0.0mm 350 W/m2
14:17 61.9 °F /  16.6 °C 50.4 °F /  10.2 °C 29.8in /  1008.8hPa WNW 10.1mph /  16.3km/h 13mph /  20.9km/h 66% 0in /  0.0mm 1107 W/m2
14:22 62.2 °F /  16.8 °C 49.5 °F /  9.7 °C 29.8in /  1008.5hPa West 6mph /  9.7km/h 9mph /  14.5km/h 63% 0in /  0.0mm 1107 W/m2
14:27 62.2 °F /  16.8 °C 48.6 °F /  9.2 °C 29.8in /  1008.8hPa West 4mph /  6.4km/h 12mph /  19.3km/h 61% 0in /  0.0mm 287 W/m2
14:32 61.9 °F /  16.6 °C 48.7 °F /  9.3 °C 29.8in /  1008.8hPa WNW 8.1mph /  13km/h 11mph /  17.7km/h 62% 0in /  0.0mm 279 W/m2
14:37 61.3 °F /  16.3 °C 49.1 °F /  9.5 °C 29.8in /  1008.8hPa NW 4.9mph /  7.9km/h 7mph /  11.3km/h 64% 0in /  0.0mm 302 W/m2
14:42 61.2 °F /  16.2 °C 49.3 °F /  9.6 °C 29.8in /  1008.8hPa West 6mph /  9.7km/h 8mph /  12.9km/h 65% 0in /  0.0mm 374 W/m2
14:47 61.3 °F /  16.3 °C 49.8 °F /  9.9 °C 29.8in /  1008.8hPa WNW 2.9mph /  4.7km/h 8mph /  12.9km/h 66% 0in /  0.0mm 404 W/m2
14:52 61.3 °F /  16.3 °C 49.5 °F /  9.7 °C 29.8in /  1008.8hPa WNW 4.9mph /  7.9km/h 10mph /  16.1km/h 65% 0in /  0.0mm 471 W/m2
14:57 61.7 °F /  16.5 °C 49.8 °F /  9.9 °C 29.8in /  1008.8hPa WSW 6.9mph /  11.1km/h 9mph /  14.5km/h 65% 0in /  0.0mm 471 W/m2
15:02 61.9 °F /  16.6 °C 49.6 °F /  9.8 °C 29.8in /  1008.8hPa NW 4.9mph /  7.9km/h 8mph /  12.9km/h 64% 0in /  0.0mm 387 W/m2
15:07 61.9 °F /  16.6 °C 48.7 °F /  9.3 °C 29.8in /  1008.8hPa East 2.9mph /  4.7km/h 8mph /  12.9km/h 62% 0in /  0.0mm 338 W/m2
15:12 61.5 °F /  16.4 °C 48.7 °F /  9.3 °C 29.8in /  1008.8hPa WNW 4mph /  6.4km/h 8mph /  12.9km/h 63% 0in /  0.0mm 336 W/m2
15:17 61.3 °F /  16.3 °C 49.5 °F /  9.7 °C 29.8in /  1008.8hPa West 6mph /  9.7km/h 7mph /  11.3km/h 65% 0in /  0.0mm 436 W/m2
15:22 61.5 °F /  16.4 °C 48.7 °F /  9.3 °C 29.8in /  1008.8hPa NW 0.9mph /  1.4km/h 5mph /  8km/h 63% 0in /  0.0mm 872 W/m2
15:27 62.1 °F /  16.7 °C 49.8 °F /  9.9 °C 29.8in /  1008.8hPa SE 2mph /  3.2km/h 8mph /  12.9km/h 64% 0in /  0.0mm 809 W/m2
15:32 62.4 °F /  16.9 °C 49.3 °F /  9.6 °C 29.8in /  1008.8hPa NW 2mph /  3.2km/h 12mph /  19.3km/h 62% 0in /  0.0mm 807 W/m2
15:37 62.6 °F /  17 °C 48.6 °F /  9.2 °C 29.8in /  1008.8hPa West 6mph /  9.7km/h 15mph /  24.1km/h 60% 0in /  0.0mm 788 W/m2
15:42 62.6 °F /  17 °C 48.9 °F /  9.4 °C 29.8in /  1008.8hPa WNW 8.1mph /  13km/h 14mph /  22.5km/h 61% 0in /  0.0mm 728 W/m2
15:47 62.2 °F /  16.8 °C 49.1 °F /  9.5 °C 29.8in /  1008.8hPa WNW 2mph /  3.2km/h 11mph /  17.7km/h 62% 0in /  0.0mm 399 W/m2
15:52 62.2 °F /  16.8 °C 49.5 °F /  9.7 °C 29.8in /  1008.8hPa West 4mph /  6.4km/h 10mph /  16.1km/h 63% 0in /  0.0mm 397 W/m2
15:57 62.2 °F /  16.8 °C 49.1 °F /  9.5 °C 29.8in /  1008.8hPa West 2mph /  3.2km/h 11mph /  17.7km/h 62% 0in /  0.0mm 410 W/m2
16:02 62.2 °F /  16.8 °C 48.6 °F /  9.2 °C 29.8in /  1008.5hPa WNW 2mph /  3.2km/h 7mph /  11.3km/h 61% 0in /  0.0mm 411 W/m2
16:07 62.4 °F /  16.9 °C 48.4 °F /  9.1 °C 29.8in /  1008.8hPa NW 4.9mph /  7.9km/h 8mph /  12.9km/h 60% 0in /  0.0mm 445 W/m2
16:12 62.6 °F /  17 °C 48.9 °F /  9.4 °C 29.8in /  1008.8hPa NW 2mph /  3.2km/h 10mph /  16.1km/h 61% 0in /  0.0mm 476 W/m2
16:17 62.6 °F /  17 °C 47.7 °F /  8.7 °C 29.8in /  1008.8hPa NW 2.9mph /  4.7km/h 8mph /  12.9km/h 58% 0in /  0.0mm 512 W/m2
16:22 62.8 °F /  17.1 °C 48.2 °F /  9 °C 29.8in /  1008.8hPa NE 2mph /  3.2km/h 4mph /  6.4km/h 59% 0in /  0.0mm 881 W/m2
16:27 63.3 °F /  17.4 °C 49.3 °F /  9.6 °C 29.8in /  1008.8hPa ESE 0.9mph /  1.4km/h 7mph /  11.3km/h 60% 0in /  0.0mm 737 W/m2
16:32 63.5 °F /  17.5 °C 49.8 °F /  9.9 °C 29.8in /  1008.8hPa East 2mph /  3.2km/h 4mph /  6.4km/h 61% 0in /  0.0mm 355 W/m2
16:37 63.7 °F /  17.6 °C 50 °F /  10 °C 29.8in /  1008.8hPa SSE 2mph /  3.2km/h 4mph /  6.4km/h 61% 0in /  0.0mm 339 W/m2
16:42 63.7 °F /  17.6 °C 49.5 °F /  9.7 °C 29.8in /  1008.8hPa NW 4mph /  6.4km/h 6mph /  9.7km/h 60% 0in /  0.0mm 353 W/m2
16:47 63.7 °F /  17.6 °C 50 °F /  10 °C 29.8in /  1008.8hPa SE 2.9mph /  4.7km/h 7mph /  11.3km/h 61% 0in /  0.0mm 332 W/m2
16:52 63.1 °F /  17.3 °C 49.1 °F /  9.5 °C 29.8in /  1008.8hPa SW 2mph /  3.2km/h 9mph /  14.5km/h 60% 0in /  0.0mm 230 W/m2
16:57 63.1 °F /  17.3 °C 49.5 °F /  9.7 °C 29.8in /  1008.8hPa West 2.9mph /  4.7km/h 6mph /  9.7km/h 61% 0in /  0.0mm 251 W/m2
17:02 63.1 °F /  17.3 °C 49.8 °F /  9.9 °C 29.8in /  1008.8hPa SW 2mph /  3.2km/h 6mph /  9.7km/h 62% 0in /  0.0mm 257 W/m2
17:07 63.3 °F /  17.4 °C 49.6 °F /  9.8 °C 29.8in /  1008.8hPa NW 4.9mph /  7.9km/h 8mph /  12.9km/h 61% 0in /  0.0mm 642 W/m2
17:13 63.7 °F /  17.6 °C 50 °F /  10 °C 29.8in /  1008.8hPa West 4mph /  6.4km/h 8mph /  12.9km/h 61% 0in /  0.0mm 431 W/m2
17:18 63.5 °F /  17.5 °C 49.3 °F /  9.6 °C 29.8in /  1008.8hPa SE 0.9mph /  1.4km/h 5mph /  8km/h 60% 0in /  0.0mm 176 W/m2
17:23 63.3 °F /  17.4 °C 49.3 °F /  9.6 °C 29.8in /  1008.8hPa NNW 2.9mph /  4.7km/h 7mph /  11.3km/h 60% 0in /  0.0mm 232 W/m2
17:28 63.3 °F /  17.4 °C 50.5 °F /  10.3 °C 29.8in /  1008.8hPa WSW 4mph /  6.4km/h 7mph /  11.3km/h 63% 0in /  0.0mm 171 W/m2
17:33 63 °F /  17.2 °C 50.2 °F /  10.1 °C 29.8in /  1008.8hPa West 4mph /  6.4km/h 9mph /  14.5km/h 63% 0in /  0.0mm 155 W/m2
17:38 62.8 °F /  17.1 °C 50.4 °F /  10.2 °C 29.8in /  1009.1hPa NW 2.9mph /  4.7km/h 6mph /  9.7km/h 64% 0in /  0.0mm 165 W/m2
17:43 62.6 °F /  17 °C 50.7 °F /  10.4 °C 29.8in /  1009.1hPa WSW 4mph /  6.4km/h 9mph /  14.5km/h 65% 0in /  0.0mm 213 W/m2
17:48 62.8 °F /  17.1 °C 51.3 °F /  10.7 °C 29.8in /  1009.1hPa West 6mph /  9.7km/h 9mph /  14.5km/h 66% 0in /  0.0mm 299 W/m2
17:53 62.6 °F /  17 °C 50.2 °F /  10.1 °C 29.8in /  1009.1hPa WNW 2.9mph /  4.7km/h 8mph /  12.9km/h 64% 0in /  0.0mm 243 W/m2
17:58 62.4 °F /  16.9 °C 50.5 °F /  10.3 °C 29.8in /  1009.5hPa WNW 4mph /  6.4km/h 8mph /  12.9km/h 65% 0in /  0.0mm 348 W/m2
18:03 62.6 °F /  17 °C 50.7 °F /  10.4 °C 29.8in /  1009.5hPa West 4mph /  6.4km/h 6mph /  9.7km/h 65% 0in /  0.0mm 232 W/m2
18:08 62.4 °F /  16.9 °C 50 °F /  10 °C 29.8in /  1009.1hPa WNW 0.9mph /  1.4km/h 4mph /  6.4km/h 64% 0in /  0.0mm 176 W/m2
18:13 62.1 °F /  16.7 °C 50.2 °F /  10.1 °C 29.8in /  1009.5hPa West 4mph /  6.4km/h 8mph /  12.9km/h 65% 0in /  0.0mm 148 W/m2
18:18 61.5 °F /  16.4 °C 49.6 °F /  9.8 °C 29.8in /  1009.5hPa WNW 4mph /  6.4km/h 7mph /  11.3km/h 65% 0in /  0.0mm 123 W/m2
18:23 61.3 °F /  16.3 °C 49.8 °F /  9.9 °C 29.8in /  1009.5hPa WNW 2.9mph /  4.7km/h 5mph /  8km/h 66% 0in /  0.0mm 121 W/m2
18:28 61.2 °F /  16.2 °C 49.3 °F /  9.6 °C 29.8in /  1009.5hPa WSW 2mph /  3.2km/h 5mph /  8km/h 65% 0in /  0.0mm 100 W/m2
18:33 61 °F /  16.1 °C 49.5 °F /  9.7 °C 29.8in /  1009.5hPa WSW 2mph /  3.2km/h 4mph /  6.4km/h 66% 0in /  0.0mm 104 W/m2
18:38 61 °F /  16.1 °C 50 °F /  10 °C 29.8in /  1009.5hPa West 0.9mph /  1.4km/h 2mph /  3.2km/h 67% 0in /  0.0mm 142 W/m2
18:43 61 °F /  16.1 °C 50 °F /  10 °C 29.8in /  1009.5hPa Calm   2mph /  3.2km/h 67% 0in /  0.0mm 160 W/m2
18:48 61.2 °F /  16.2 °C 50.2 °F /  10.1 °C 29.8in /  1009.5hPa WNW 0.9mph /  1.4km/h 2mph /  3.2km/h 67% 0in /  0.0mm 139 W/m2
18:53 61.2 °F /  16.2 °C 50.2 °F /  10.1 °C 29.8in /  1009.5hPa WNW 0.9mph /  1.4km/h 3mph /  4.8km/h 67% 0in /  0.0mm 137 W/m2
18:58 61.2 °F /  16.2 °C 50.2 °F /  10.1 °C 29.8in /  1009.5hPa WNW 0.9mph /  1.4km/h 1mph /  1.6km/h 67% 0in /  0.0mm 155 W/m2
19:03 61.3 °F /  16.3 °C 51.4 °F /  10.8 °C 29.8in /  1009.5hPa Calm   3mph /  4.8km/h 70% 0in /  0.0mm 132 W/m2
19:08 61.3 °F /  16.3 °C 51.1 °F /  10.6 °C 29.8in /  1009.5hPa Calm     69% 0in /  0.0mm 84 W/m2
19:13 61.5 °F /  16.4 °C 50.5 °F /  10.3 °C 29.8in /  1009.8hPa WNW 0.9mph /  1.4km/h 2mph /  3.2km/h 67% 0in /  0.0mm 74 W/m2
19:18 61.5 °F /  16.4 °C 51.3 °F /  10.7 °C 29.8in /  1009.8hPa NW 0.9mph /  1.4km/h 2mph /  3.2km/h 69% 0in /  0.0mm 72 W/m2
19:23 61.3 °F /  16.3 °C 51.1 °F /  10.6 °C 29.8in /  1009.8hPa Calm     69% 0in /  0.0mm 70 W/m2
19:28 61.3 °F /  16.3 °C 51.8 °F /  11 °C 29.8in /  1009.8hPa Calm     71% 0in /  0.0mm 72 W/m2
19:33 61.3 °F /  16.3 °C 52.7 °F /  11.5 °C 29.8in /  1009.8hPa Calm     73% 0in /  0.0mm 88 W/m2
19:38 61.2 °F /  16.2 °C 53.2 °F /  11.8 °C 29.8in /  1009.8hPa Calm   2mph /  3.2km/h 75% 0in /  0.0mm 107 W/m2
19:43 60.8 °F /  16 °C 52.5 °F /  11.4 °C 29.8in /  1009.8hPa WNW 0.9mph /  1.4km/h 1mph /  1.6km/h 74% 0in /  0.0mm 90 W/m2
19:48 60.8 °F /  16 °C 52.5 °F /  11.4 °C 29.8in /  1009.8hPa Calm   2mph /  3.2km/h 74% 0in /  0.0mm 83 W/m2
19:53 61 °F /  16.1 °C 51.4 °F /  10.8 °C 29.8in /  1009.8hPa WNW 2mph /  3.2km/h 2mph /  3.2km/h 71% 0in /  0.0mm 67 W/m2
19:58 61 °F /  16.1 °C 51.4 °F /  10.8 °C 29.8in /  1009.8hPa WNW 2mph /  3.2km/h 2mph /  3.2km/h 71% 0in /  0.0mm 60 W/m2
20:03 60.8 °F /  16 °C 50.9 °F /  10.5 °C 29.8in /  1009.8hPa WSW 2mph /  3.2km/h 2mph /  3.2km/h 70% 0in /  0.0mm 62 W/m2
20:08 60.6 °F /  15.9 °C 50.7 °F /  10.4 °C 29.8in /  1010.2hPa WNW 0.9mph /  1.4km/h 2mph /  3.2km/h 70% 0in /  0.0mm 74 W/m2
20:13 60.6 °F /  15.9 °C 51.1 °F /  10.6 °C 29.8in /  1010.2hPa Calm     71% 0in /  0.0mm 84 W/m2
20:18 60.6 °F /  15.9 °C 50.7 °F /  10.4 °C 29.8in /  1010.2hPa Calm   1mph /  1.6km/h 70% 0in /  0.0mm 84 W/m2
20:23 60.8 °F /  16 °C 50.9 °F /  10.5 °C 29.8in /  1010.2hPa West 0.9mph /  1.4km/h 2mph /  3.2km/h 70% 0in /  0.0mm 65 W/m2
20:28 60.8 °F /  16 °C 50.9 °F /  10.5 °C 29.8in /  1010.2hPa Calm   1mph /  1.6km/h 70% 0in /  0.0mm 60 W/m2
20:33 60.6 °F /  15.9 °C 50.7 °F /  10.4 °C 29.8in /  1010.2hPa SW 0.9mph /  1.4km/h 1mph /  1.6km/h 70% 0in /  0.0mm 60 W/m2
20:38 60.3 °F /  15.7 °C 50.4 °F /  10.2 °C 29.8in /  1010.2hPa NW 0.9mph /  1.4km/h 2mph /  3.2km/h 70% 0in /  0.0mm 56 W/m2
20:43 60.1 °F /  15.6 °C 50.7 °F /  10.4 °C 29.8in /  1010.2hPa Calm   1mph /  1.6km/h 71% 0in /  0.0mm 51 W/m2
20:48 59.9 °F /  15.5 °C 50.9 °F /  10.5 °C 29.8in /  1010.2hPa Calm   2mph /  3.2km/h 72% 0in /  0.0mm 42 W/m2
20:53 59.7 °F /  15.4 °C 51.1 °F /  10.6 °C 29.8in /  1010.2hPa Calm   2mph /  3.2km/h 73% 0in /  0.0mm 32 W/m2
20:58 59.5 °F /  15.3 °C 50.9 °F /  10.5 °C 29.8in /  1010.2hPa WNW 2mph /  3.2km/h 2mph /  3.2km/h 73% 0in /  0.0mm 21 W/m2
21:03 59.2 °F /  15.1 °C 50.9 °F /  10.5 °C 29.8in /  1010.5hPa Calm   2mph /  3.2km/h 74% 0in /  0.0mm 14 W/m2
21:08 58.8 °F /  14.9 °C 50.9 °F /  10.5 °C 29.8in /  1010.5hPa Calm   1mph /  1.6km/h 75% 0in /  0.0mm 11 W/m2
21:13 58.5 °F /  14.7 °C 50.5 °F /  10.3 °C 29.8in /  1010.5hPa Calm   2mph /  3.2km/h 75% 0in /  0.0mm 11 W/m2
21:18 58.1 °F /  14.5 °C 50.9 °F /  10.5 °C 29.8in /  1010.5hPa Calm   1mph /  1.6km/h 77% 0in /  0.0mm 7 W/m2
21:23 57.9 °F /  14.4 °C 51.1 °F /  10.6 °C 29.8in /  1010.5hPa Calm   2mph /  3.2km/h 78% 0in /  0.0mm 0 W/m2
21:28 57.6 °F /  14.2 °C 50.7 °F /  10.4 °C 29.9in /  1010.8hPa Calm     78% 0in /  0.0mm 0 W/m2
21:33 57.4 °F /  14.1 °C 50.9 °F /  10.5 °C 29.9in /  1010.8hPa Calm     79% 0in /  0.0mm 0 W/m2
21:38 57 °F /  13.9 °C 50.5 °F /  10.3 °C 29.9in /  1010.8hPa Calm     79% 0in /  0.0mm 0 W/m2
21:43 56.7 °F /  13.7 °C 50.5 °F /  10.3 °C 29.9in /  1010.8hPa Calm     80% 0in /  0.0mm 0 W/m2
21:48 56.5 °F /  13.6 °C 50 °F /  10 °C 29.9in /  1010.8hPa Calm   2mph /  3.2km/h 79% 0in /  0.0mm 0 W/m2
21:53 56.5 °F /  13.6 °C 49.6 °F /  9.8 °C 29.9in /  1010.8hPa Calm   2mph /  3.2km/h 78% 0in /  0.0mm 0 W/m2
21:58 56.3 °F /  13.5 °C 50.2 °F /  10.1 °C 29.9in /  1010.8hPa Calm   1mph /  1.6km/h 80% 0in /  0.0mm 0 W/m2
22:03 56.1 °F /  13.4 °C 50 °F /  10 °C 29.9in /  1010.8hPa WSW 2mph /  3.2km/h 3mph /  4.8km/h 80% 0in /  0.0mm 0 W/m2
22:08 55.9 °F /  13.3 °C 49.5 °F /  9.7 °C 29.9in /  1011.2hPa Calm   1mph /  1.6km/h 79% 0in /  0.0mm 0 W/m2
22:13 55.9 °F /  13.3 °C 49.5 °F /  9.7 °C 29.9in /  1011.2hPa WNW 2mph /  3.2km/h 3mph /  4.8km/h 79% 0in /  0.0mm 0 W/m2
22:18 55.9 °F /  13.3 °C 49.5 °F /  9.7 °C 29.9in /  1011.2hPa Calm   2mph /  3.2km/h 79% 0in /  0.0mm 0 W/m2
22:23 55.9 °F /  13.3 °C 49.5 °F /  9.7 °C 29.9in /  1011.2hPa Calm   1mph /  1.6km/h 79% 0in /  0.0mm 0 W/m2
22:28 55.9 °F /  13.3 °C 49.5 °F /  9.7 °C 29.9in /  1011.5hPa Calm   2mph /  3.2km/h 79% 0in /  0.0mm 0 W/m2
22:33 55.9 °F /  13.3 °C 49.1 °F /  9.5 °C 29.9in /  1011.5hPa West 0.9mph /  1.4km/h 1mph /  1.6km/h 78% 0in /  0.0mm 0 W/m2
22:38 55.8 °F /  13.2 °C 49.3 °F /  9.6 °C 29.9in /  1011.5hPa Calm   1mph /  1.6km/h 79% 0in /  0.0mm 0 W/m2
22:43 55.6 °F /  13.1 °C 49.5 °F /  9.7 °C 29.9in /  1011.5hPa Calm   1mph /  1.6km/h 80% 0in /  0.0mm 0 W/m2
22:48 55.4 °F /  13 °C 48.9 °F /  9.4 °C 29.9in /  1011.5hPa Calm   2mph /  3.2km/h 79% 0in /  0.0mm 0 W/m2
22:53 55.2 °F /  12.9 °C 49.1 °F /  9.5 °C 29.9in /  1011.5hPa Calm   1mph /  1.6km/h 80% 0in /  0.0mm 0 W/m2
22:58 55 °F /  12.8 °C 49.3 °F /  9.6 °C 29.9in /  1011.5hPa WSW 4mph /  6.4km/h 4mph /  6.4km/h 81% 0in /  0.0mm 0 W/m2
23:03 55 °F /  12.8 °C 48.9 °F /  9.4 °C 29.9in /  1011.9hPa West 2mph /  3.2km/h 3mph /  4.8km/h 80% 0in /  0.0mm 0 W/m2
23:08 55.2 °F /  12.9 °C 48.7 °F /  9.3 °C 29.9in /  1011.9hPa West 2mph /  3.2km/h 4mph /  6.4km/h 79% 0in /  0.0mm 0 W/m2
23:13 55.6 °F /  13.1 °C 49.1 °F /  9.5 °C 29.9in /  1011.9hPa West 4mph /  6.4km/h 6mph /  9.7km/h 79% 0in /  0.0mm 0 W/m2
23:18 55.8 °F /  13.2 °C 48.9 °F /  9.4 °C 29.9in /  1011.9hPa West 2.9mph /  4.7km/h 4mph /  6.4km/h 78% 0in /  0.0mm 0 W/m2
23:23 55.9 °F /  13.3 °C 49.1 °F /  9.5 °C 29.9in /  1011.9hPa West 4mph /  6.4km/h 6mph /  9.7km/h 78% 0in /  0.0mm 0 W/m2
23:28 55.8 °F /  13.2 °C 48.9 °F /  9.4 °C 29.9in /  1011.9hPa WNW 2.9mph /  4.7km/h 4mph /  6.4km/h 78% 0in /  0.0mm 0 W/m2
23:33 55.8 °F /  13.2 °C 48.9 °F /  9.4 °C 29.9in /  1011.9hPa WSW 2.9mph /  4.7km/h 6mph /  9.7km/h 78% 0in /  0.0mm 0 W/m2
23:38 55.6 °F /  13.1 °C 49.1 °F /  9.5 °C 29.9in /  1012.2hPa WNW 2.9mph /  4.7km/h 4mph /  6.4km/h 79% 0in /  0.0mm 0 W/m2
23:43 55.6 °F /  13.1 °C 49.1 °F /  9.5 °C 29.9in /  1012.2hPa West 2mph /  3.2km/h 4mph /  6.4km/h 79% 0in /  0.0mm 0 W/m2
23:49 55.4 °F /  13 °C 49.3 °F /  9.6 °C 29.9in /  1012.2hPa West 0.9mph /  1.4km/h 2mph /  3.2km/h 80% 0in /  0.0mm 0 W/m2
23:54 55.2 °F /  12.9 °C 49.1 °F /  9.5 °C 29.9in /  1012.2hPa West 0.9mph /  1.4km/h 2mph /  3.2km/h 80% 0in /  0.0mm 0 W/m2
23:59 54.9 °F /  12.7 °C 49.1 °F /  9.5 °C 29.9in /  1012.2hPa Calm   2mph /  3.2km/h 81% 0in /  0.0mm 0 W/m2
Juneau County Weather
Compliments of Weather Underground - 4 mb